X  Close Metar Aviation Weather Data     KMLB Melbourne International Airport
Temperature
81°F Temperature
77°F Dewpoint
89% Humidity



Wind
0 MPH
0 KM/H
0 M/S
0 KTS



Calm
North
Current Conditions

Clear Clear
Pressure 1017.62 (hPa) - 30.05 (inHg)
Visibility 9.9 (mile) - 16 (km)
Airport
Airport-code KMLB

Location: Melbourne International Airport
Distance: 4 (mi)

Metar:
KMLB 070353Z AUTO 00000KT 10SM CLR 27/25 A3005 RMK AO2 SLP175 T02720250

Time: 08-06-2020 11:53 pm EDT